Air Resources Laboratory banner image
Air Resources Laboratory web site National Oceanic and Atmospheric Administration (NOAA)

ri metar


KBID 220156Z AUTO 32014G22KT 10SM CLR 05/M04 A3009 RMK AO2 SLP194 T00501039=
KPVD 220151Z 23003KT 10SM CLR 01/M04 A3008 RMK AO2 SLP185 T00111039=
KSFZ 220156Z AUTO 30004KT 10SM CLR M01/M05 A3006 RMK AO2 SLP128 T10061050
 FZRANO=
KUUU 220153Z AUTO 29006KT 10SM CLR 04/M04 A3006 RMK AO2 SLP180 T00391039=
KWST 220153Z AUTO 28004KT 10SM CLR 03/M04 A3010 RMK AO2 SLP192 T00331039 $=